London Corbin Airport Magee Field London US
ICAO: KLOZ
IATA: LOZ
Category: Medium
Scheduled Services: No

Elevation: 1212 ft
TransAlt. 18000 ft.

Airport Communications:
ASOS:119.075
INDIANAPOLIS CNTR:121.325
LOUISVILLE RDO:122.2
CTAF/UNICOM:123

KLOZ Zoom In..

Runways:

(A) RW 06 length 5751 ft width 150 ft
ILS 110.90 / hdg 57

(B) RW 24 length 5751 ft width 150 ft
---- / hdg 237

Location; KLOZ
Day. 14 / Time. 13.53 Zulu
* Altimeter: 30.09
* Temperature: 22° c. 71.6°f.
* Wind from: 200° Speed 03 kn.
Dewpoint: 20° c.
Visibility: 10 Statute Miles.
Clouds: Scattered 4700 ft.

KLOZ 141353Z AUTO 20003KT 10SM SCT047 22/20 A3009 RMK AO2 SLP176 T02220200


Wind From 200°
Speed 03 kn.

 
 
jpsmedia.com for Web Design worldairports.se 2018   terms of use